Latest Weather Observations for Sellicks Hill

IDS60801

Issued at 5:31 am CDT Tuesday 9 February 2016 (issued every 30 minutes, with the page automatically refreshed every 10 minutes)

About weather observations | Map of weather stations | Latest weather observations for SA | Other Formats
Station Details ID: 023886 Name: MOUNT TERRIBLE RADAR Lat: -35.33 Lon: 138.50 Height: 385.7 m
Data from the previous 72 hours. | See also: Recent months for locations in South Australia
Date/Time
CDT
Temp
°C
App
Temp
°C
Dew
Point
Rel
Hum
%
Delta-T
°C
Wind Press
QNH
hPa
Press
MSL
hPa
Rain
since 9 am
mm
Dir
 
Spd
km/h
Gust
km/h
Spd
kts
Gust
kts
09/05:30am - - - - - SE 35 41 19 22 - - -
09/05:00am - - - - - SE 35 43 19 23 - - -
09/04:30am - - - - - SE 35 41 19 22 - - -
09/04:00am - - - - - SE 39 44 21 24 - - -
09/03:30am - - - - - SSE 43 48 23 26 - - -
09/03:00am - - - - - SE 43 48 23 26 - - -
09/02:30am - - - - - SSE 43 48 23 26 - - -
09/02:00am - - - - - SSE 46 54 25 29 - - -
09/01:30am - - - - - SSE 50 57 27 31 - - -
09/01:00am - - - - - SSE 54 61 29 33 - - -
09/12:30am - - - - - SE 50 61 27 33 - - -
09/12:00am - - - - - SSE 52 61 28 33 - - -
 
Date/Time
CDT
Temp
°C
App
Temp
°C
Dew
Point
Rel
Hum
%
Delta-T
°C
Wind Press
QNH
hPa
Press
MSL
hPa
Rain
since 9 am
mm
Dir
 
Spd
km/h
Gust
km/h
Spd
kts
Gust
kts
08/11:30pm - - - - - SSE 54 63 29 34 - - -
08/11:00pm - - - - - SSE 54 65 29 35 - - -
08/10:30pm - - - - - SE 52 69 28 37 - - -
08/10:00pm - - - - - SSE 52 65 28 35 - - -
08/09:30pm - - - - - SSE 56 67 30 36 - - -
08/09:00pm - - - - - SSE 54 61 29 33 - - -
08/08:30pm - - - - - SSE 54 65 29 35 - - -
08/08:00pm - - - - - SSE 56 63 30 34 - - -
08/07:30pm - - - - - SSE 56 65 30 35 - - -
08/07:00pm - - - - - SSE 52 61 28 33 - - -
08/06:30pm - - - - - SSE 50 59 27 32 - - -
08/06:00pm - - - - - SSE 54 61 29 33 - - -
08/05:30pm - - - - - SSE 54 61 29 33 - - -
08/05:00pm - - - - - SSE 50 59 27 32 - - -
08/04:30pm - - - - - SSE 48 61 26 33 - - -
08/04:00pm - - - - - SE 46 59 25 32 - - -
08/03:30pm - - - - - SSE 48 57 26 31 - - -
08/03:00pm - - - - - SE 44 52 24 28 - - -
08/02:30pm - - - - - SE 46 57 25 31 - - -
08/02:00pm - - - - - SSE 41 52 22 28 - - -
08/01:30pm - - - - - SSE 43 50 23 27 - - -
08/01:00pm - - - - - SSE 43 52 23 28 - - -
08/12:30pm - - - - - SE 41 54 22 29 - - -
08/12:00pm - - - - - SSE 44 54 24 29 - - -
08/11:30am - - - - - SSE 44 54 24 29 - - -
08/11:00am - - - - - SE 43 54 23 29 - - -
08/10:30am - - - - - SE 46 54 25 29 - - -
08/10:00am - - - - - SE 46 54 25 29 - - -
08/09:30am - - - - - SE 43 52 23 28 - - -
08/09:00am - - - - - SSE 44 54 24 29 - - -
08/08:30am - - - - - SE 44 57 24 31 - - -
08/08:00am - - - - - SE 43 54 23 29 - - -
08/07:30am - - - - - SE 44 54 24 29 - - -
08/07:00am - - - - - SE 43 52 23 28 - - -
08/06:30am - - - - - SE 43 52 23 28 - - -
08/06:00am - - - - - SE 43 50 23 27 - - -
08/05:30am - - - - - SE 41 50 22 27 - - -
08/05:00am - - - - - SE 41 54 22 29 - - -
08/04:30am - - - - - SE 46 54 25 29 - - -
08/04:00am - - - - - SE 50 61 27 33 - - -
08/03:30am - - - - - SSE 48 56 26 30 - - -
08/03:00am - - - - - SSE 46 56 25 30 - - -
08/02:30am - - - - - SSE 46 56 25 30 - - -
08/02:00am - - - - - SSE 48 57 26 31 - - -
08/01:30am - - - - - SSE 44 56 24 30 - - -
08/01:00am - - - - - SSE 48 59 26 32 - - -
08/12:30am - - - - - SSE 48 57 26 31 - - -
08/12:00am - - - - - SSE 46 54 25 29 - - -
 
Date/Time
CDT
Temp
°C
App
Temp
°C
Dew
Point
Rel
Hum
%
Delta-T
°C
Wind Press
QNH
hPa
Press
MSL
hPa
Rain
since 9 am
mm
Dir
 
Spd
km/h
Gust
km/h
Spd
kts
Gust
kts
07/11:30pm - - - - - SSE 46 56 25 30 - - -
07/11:00pm - - - - - SSE 46 54 25 29 - - -
07/10:30pm - - - - - SSE 44 52 24 28 - - -
07/10:00pm - - - - - SSE 48 56 26 30 - - -
07/09:30pm - - - - - SSE 44 52 24 28 - - -
07/09:00pm - - - - - SSE 44 52 24 28 - - -
07/08:30pm - - - - - SSE 44 52 24 28 - - -
07/08:00pm - - - - - SSE 43 50 23 27 - - -
07/07:30pm - - - - - SSE 41 46 22 25 - - -
07/07:00pm - - - - - SSE 39 43 21 23 - - -
07/06:30pm - - - - - SSE 35 41 19 22 - - -
07/06:00pm - - - - - SSE 33 37 18 20 - - -
07/05:30pm - - - - - SSE 32 37 17 20 - - -
07/05:00pm - - - - - SSE 32 35 17 19 - - -
07/04:30pm - - - - - SSE 26 35 14 19 - - -
07/04:00pm - - - - - SSE 24 32 13 17 - - -
07/03:30pm - - - - - SSE 24 32 13 17 - - -
07/03:00pm - - - - - SSE 24 28 13 15 - - -
07/02:30pm - - - - - SE 22 32 12 17 - - -
07/02:00pm - - - - - SE 24 33 13 18 - - -
07/01:30pm - - - - - SSE 20 26 11 14 - - -
07/01:00pm - - - - - SE 19 26 10 14 - - -
07/12:30pm - - - - - SSE 19 26 10 14 - - -
07/12:00pm - - - - - SSE 20 28 11 15 - - -
07/11:30am - - - - - SSE 22 26 12 14 - - -
07/11:00am - - - - - SE 22 26 12 14 - - -
07/10:30am - - - - - SE 28 32 15 17 - - -
07/10:00am - - - - - SSE 32 41 17 22 - - -
07/09:30am - - - - - SSE 33 37 18 20 - - -
07/09:00am - - - - - SSE 32 35 17 19 - - -
07/08:30am - - - - - SE 30 35 16 19 - - -
07/08:00am - - - - - SE 28 32 15 17 - - -
07/07:30am - - - - - SE 28 32 15 17 - - -
07/07:00am - - - - - SSE 28 32 15 17 - - -
07/06:30am - - - - - SSE 24 28 13 15 - - -
07/06:00am - - - - - SSE 26 30 14 16 - - -
07/05:30am - - - - - SSE 24 30 13 16 - - -
07/05:00am - - - - - SSE 24 26 13 14 - - -
07/04:30am - - - - - SSE 22 26 12 14 - - -
07/04:00am - - - - - SE 24 28 13 15 - - -
07/03:30am - - - - - SSE 26 28 14 15 - - -
07/03:00am - - - - - SE 32 39 17 21 - - -
07/02:30am - - - - - SE 35 41 19 22 - - -
07/02:00am - - - - - SE 37 43 20 23 - - -
07/01:30am - - - - - SSE 35 43 19 23 - - -
07/01:00am - - - - - SSE 35 41 19 22 - - -
07/12:30am - - - - - SSE 35 39 19 21 - - -
07/12:00am - - - - - SSE 32 33 17 18 - - -
 
Date/Time
CDT
Temp
°C
App
Temp
°C
Dew
Point
Rel
Hum
%
Delta-T
°C
Wind Press
QNH
hPa
Press
MSL
hPa
Rain
since 9 am
mm
Dir
 
Spd
km/h
Gust
km/h
Spd
kts
Gust
kts
06/11:30pm - - - - - SSE 28 32 15 17 - - -
06/11:00pm - - - - - SSE 30 32 16 17 - - -
06/10:30pm - - - - - SSE 28 35 15 19 - - -
06/10:00pm - - - - - SSE 30 33 16 18 - - -
06/09:30pm - - - - - SSE 28 33 15 18 - - -
06/09:00pm - - - - - SSE 20 24 11 13 - - -
06/08:30pm - - - - - SSE 22 26 12 14 - - -
06/08:00pm - - - - - SSE 22 26 12 14 - - -
06/07:30pm - - - - - SSE 26 30 14 16 - - -
06/07:00pm - - - - - SSE 26 30 14 16 - - -
06/06:30pm - - - - - SSE 24 26 13 14 - - -
06/06:00pm - - - - - SSE 24 30 13 16 - - -
06/05:30pm - - - - - SSE 19 24 10 13 - - -
06/05:00pm - - - - - SW 4 11 2 6 - - -
06/04:30pm - - - - - WNW 6 13 3 7 - - -
06/04:00pm - - - - - W 6 15 3 8 - - -
06/03:30pm - - - - - W 6 11 3 6 - - -
06/03:00pm - - - - - WNW 9 13 5 7 - - -
06/02:30pm - - - - - WNW 7 13 4 7 - - -
06/02:00pm - - - - - WNW 6 9 3 5 - - -
06/01:30pm - - - - - WNW 7 15 4 8 - - -
06/01:00pm - - - - - NNW 7 15 4 8 - - -
06/12:30pm - - - - - NNW 7 13 4 7 - - -
06/12:00pm - - - - - NNW 7 11 4 6 - - -
06/11:30am - - - - - N 6 9 3 5 - - -
06/11:00am - - - - - NNW 6 9 3 5 - - -
06/10:30am - - - - - NNE 4 9 2 5 - - -
06/10:00am - - - - - ENE 6 9 3 5 - - -
06/09:30am - - - - - ENE 6 9 3 5 - - -
06/09:00am - - - - - ESE 15 20 8 11 - - -
06/08:30am - - - - - ESE 17 22 9 12 - - -
06/08:00am - - - - - ESE 19 24 10 13 - - -
06/07:30am - - - - - ESE 17 22 9 12 - - -
06/07:00am - - - - - ESE 19 24 10 13 - - -
06/06:30am - - - - - SE 24 28 13 15 - - -
06/06:00am - - - - - SE 22 24 12 13 - - -

Other Formats:

Comma delimited format used in spreadsheet applications
http://www.bom.gov.au/fwo/IDS60801/IDS60801.95679.axf

JavaScript Object Notation format (JSON) in row-major order
http://www.bom.gov.au/fwo/IDS60801/IDS60801.95679.json